Time;durP1;ratioP1;P1;durP2;ratioP2;P2;SDS_P1;SDS_P2;PMS_P1;PMS_P2;Temp;Humidity;BMP_temperature;BMP_pressure;BME280_temperature;BME280_humidity;BME280_pressure;Samples;Min_cycle;Max_cycle;Signal;HPM_P1;HPM_P2
2023/03/27 00:00:15;;;;;;;8.27;7.88;;;3.40;99.90;;;;;;2077024;28;20192;-60
2023/03/27 00:01:21;;;;;;;0.60;0.60;;;3.40;99.90;;;;;;2076775;28;20185;-60
2023/03/27 00:02:27;;;;;;;0.88;0.88;;;3.30;99.90;;;;;;2077452;28;20231;-60
2023/03/27 00:03:34;;;;;;;2.63;2.53;;;3.30;99.90;;;;;;2077700;28;20192;-60
2023/03/27 00:04:42;;;;;;;0.65;0.63;;;3.30;99.90;;;;;;2076660;28;20219;-61
2023/03/27 00:05:58;;;;;;;1.70;1.60;;;3.20;99.90;;;;;;2073554;28;20689;-61
2023/03/27 00:07:04;;;;;;;0.70;0.70;;;3.20;99.90;;;;;;2077297;28;20742;-61
2023/03/27 00:08:09;;;;;;;0.60;0.60;;;3.30;99.90;;;;;;2077486;28;20268;-61
2023/03/27 00:09:16;;;;;;;2.70;2.60;;;3.20;99.90;;;;;;2077409;28;20192;-60
2023/03/27 00:10:23;;;;;;;0.65;0.60;;;3.20;99.90;;;;;;2076896;28;20196;-61
2023/03/27 00:11:28;;;;;;;2.03;1.92;;;3.20;99.90;;;;;;2076467;28;20905;-60
2023/03/27 00:12:34;;;;;;;6.65;6.32;;;3.20;99.90;;;;;;2077040;28;20197;-61
2023/03/27 00:13:42;;;;;;;2.53;2.42;;;3.10;99.90;;;;;;2077466;28;20211;-61
2023/03/27 00:14:48;;;;;;;8.45;8.02;;;3.10;99.90;;;;;;2077420;28;20661;-60
2023/03/27 00:15:56;;;;;;;17.65;16.58;;;3.10;99.90;;;;;;2076573;28;20212;-61
2023/03/27 00:17:03;;;;;;;0.55;0.55;;;3.10;99.90;;;;;;2076539;28;20195;-61
2023/03/27 00:18:04;;;;;;;4.30;4.10;;;3.10;99.90;;;;;;2076672;28;20193;-61
2023/03/27 00:19:10;;;;;;;0.93;0.52;;;3.00;99.90;;;;;;2076632;28;20200;-61
2023/03/27 00:20:21;;;;;;;0.57;0.57;;;3.10;99.90;;;;;;2076909;28;20188;-60
2023/03/27 00:21:27;;;;;;;1.42;1.30;;;3.10;99.90;;;;;;2076637;28;20184;-61
2023/03/27 00:22:32;;;;;;;0.50;0.50;;;3.10;99.90;;;;;;2076704;28;20204;-59
2023/03/27 00:23:39;;;;;;;0.55;0.50;;;3.10;99.90;;;;;;2076647;28;20240;-61
2023/03/27 00:24:44;;;;;;;1.15;1.13;;;3.10;99.90;;;;;;2079868;28;20191;-61
2023/03/27 00:25:51;;;;;;;0.70;0.70;;;3.10;99.90;;;;;;2076647;28;20564;-61
2023/03/27 00:26:57;;;;;;;0.63;0.63;;;3.00;99.90;;;;;;2077187;28;20525;-61
2023/03/27 00:28:03;;;;;;;0.50;0.50;;;3.10;99.90;;;;;;2077316;28;20184;-60
2023/03/27 00:29:06;;;;;;;0.40;0.40;;;3.00;99.90;;;;;;2077224;28;20571;-60
2023/03/27 00:30:10;;;;;;;3.70;3.60;;;3.10;99.90;;;;;;2076901;28;20199;-60
2023/03/27 00:31:16;;;;;;;0.80;0.80;;;3.10;99.90;;;;;;2069781;28;20578;-61
2023/03/27 00:32:22;;;;;;;1.30;1.20;;;3.10;99.90;;;;;;2070323;28;20220;-61
2023/03/27 00:33:28;;;;;;;0.93;0.85;;;3.00;99.90;;;;;;2080531;28;20196;-61
2023/03/27 00:34:33;;;;;;;0.60;0.57;;;2.90;99.90;;;;;;2076865;28;20219;-61
2023/03/27 00:35:45;;;;;;;0.60;0.60;;;2.90;99.90;;;;;;2076670;28;20849;-61
2023/03/27 00:36:52;;;;;;;3.22;3.10;;;3.00;99.90;;;;;;2076715;28;20230;-60
2023/03/27 00:37:58;;;;;;;1.05;1.05;;;3.00;99.90;;;;;;2076616;28;20217;-62
2023/03/27 00:39:03;;;;;;;0.95;0.95;;;3.00;99.90;;;;;;2076734;28;20199;-62
2023/03/27 00:40:14;;;;;;;0.67;0.67;;;3.00;99.90;;;;;;2076519;28;20199;-61
2023/03/27 00:41:21;;;;;;;0.50;0.50;;;3.00;99.90;;;;;;2076510;28;20661;-61
2023/03/27 00:42:27;;;;;;;11.77;11.23;;;3.00;99.90;;;;;;2076745;28;20739;-62
2023/03/27 00:43:35;;;;;;;1.02;1.00;;;3.00;99.90;;;;;;2076857;28;20266;-60
2023/03/27 00:44:41;;;;;;;1.52;1.52;;;3.00;99.90;;;;;;2076506;28;20197;-61
2023/03/27 00:45:50;;;;;;;0.60;0.60;;;3.00;99.90;;;;;;2076771;28;20223;-59
2023/03/27 00:46:56;;;;;;;0.65;0.65;;;3.00;99.90;;;;;;2075944;28;20210;-62
2023/03/27 00:48:05;;;;;;;0.45;0.45;;;3.00;99.90;;;;;;2076083;28;20194;-60
2023/03/27 00:49:14;;;;;;;1.13;1.13;;;3.10;99.90;;;;;;2077069;28;20200;-62
2023/03/27 00:50:25;;;;;;;2.22;2.13;;;3.10;99.90;;;;;;2068485;28;20281;-60
2023/03/27 00:51:31;;;;;;;1.77;1.73;;;3.10;99.90;;;;;;2070958;28;20181;-62
2023/03/27 00:52:41;;;;;;;8.02;7.60;;;3.10;99.90;;;;;;2077170;28;20189;-61
2023/03/27 00:53:47;;;;;;;1.08;1.08;;;3.10;99.90;;;;;;2067984;28;20229;-62
2023/03/27 00:54:53;;;;;;;1.23;1.23;;;3.10;99.90;;;;;;2069310;28;20312;-62
2023/03/27 00:56:04;;;;;;;0.80;0.80;;;3.10;99.90;;;;;;2076319;28;20211;-62
2023/03/27 00:57:15;;;;;;;2.67;2.58;;;3.10;99.90;;;;;;2075880;28;20270;-62
2023/03/27 00:58:39;;;;;;;1.10;1.10;;;3.00;99.90;;;;;;2067861;28;20204;-62
2023/03/27 00:59:47;;;;;;;0.95;0.82;;;3.10;99.90;;;;;;2072367;28;20197;-61
2023/03/27 01:00:55;;;;;;;0.80;0.80;;;3.10;99.90;;;;;;2067631;28;20246;-62
2023/03/27 01:02:03;;;;;;;1.83;1.73;;;3.10;99.90;;;;;;2069285;28;20683;-62
2023/03/27 01:03:07;;;;;;;1.30;1.10;;;3.10;99.90;;;;;;2075649;28;20200;-62
2023/03/27 01:04:10;;;;;;;1.52;1.42;;;3.10;99.90;;;;;;2067916;28;20190;-61
2023/03/27 01:05:19;;;;;;;0.70;0.70;;;3.10;99.90;;;;;;2068888;28;20193;-62
2023/03/27 01:06:25;;;;;;;1.05;0.98;;;3.10;99.90;;;;;;2076447;28;20591;-62
2023/03/27 01:07:31;;;;;;;1.08;1.08;;;3.10;99.90;;;;;;2076311;28;20224;-62
2023/03/27 01:08:37;;;;;;;1.45;0.90;;;3.10;99.90;;;;;;2076556;28;20177;-62
2023/03/27 01:09:44;;;;;;;1.23;1.20;;;3.10;99.90;;;;;;2067627;28;20193;-62
2023/03/27 01:11:30;;;;;;;1.13;1.13;;;3.20;99.90;;;;;;2069634;28;20274;-62
2023/03/27 01:12:58;;;;;;;1.02;0.93;;;3.30;99.90;;;;;;2077817;28;20193;-62
2023/03/27 01:14:51;;;;;;;0.73;0.73;;;3.20;99.90;;;;;;2072255;28;20213;-62
2023/03/27 01:16:17;;;;;;;4.10;3.90;;;3.20;99.90;;;;;;2072897;28;20226;-61
2023/03/27 01:17:41;;;;;;;0.80;0.70;;;3.10;99.90;;;;;;2078549;28;20195;-62
2023/03/27 01:19:15;;;;;;;1.70;0.98;;;3.10;99.90;;;;;;2081275;28;20275;-62
2023/03/27 01:21:05;;;;;;;1.25;1.23;;;3.20;99.90;;;;;;2068671;28;20188;-62
2023/03/27 01:22:52;;;;;;;0.90;0.90;;;3.10;99.90;;;;;;2071115;28;20583;-61
2023/03/27 01:24:47;;;;;;;0.93;0.82;;;3.10;99.90;;;;;;2078509;28;20192;-62
2023/03/27 01:26:31;;;;;;;1.00;0.90;;;3.20;99.90;;;;;;2076685;28;20215;-62
2023/03/27 01:28:01;;;;;;;11.77;11.13;;;3.20;99.90;;;;;;2078065;28;20192;-61
2023/03/27 01:29:37;;;;;;;1.30;1.20;;;3.20;99.90;;;;;;2082604;28;20184;-62
2023/03/27 01:31:04;;;;;;;0.80;0.80;;;3.10;99.90;;;;;;2078866;28;20200;-62
2023/03/27 01:32:38;;;;;;;1.02;0.98;;;3.10;99.90;;;;;;2078377;28;20208;-61
2023/03/27 01:34:20;;;;;;;1.20;1.10;;;3.10;99.90;;;;;;2069689;28;20231;-62
2023/03/27 01:36:13;;;;;;;0.82;0.82;;;3.10;99.90;;;;;;2076649;28;20200;-62
2023/03/27 01:37:37;;;;;;;1.08;1.00;;;3.10;99.90;;;;;;2055629;28;20195;-62
2023/03/27 01:39:07;;;;;;;2.15;2.05;;;3.10;99.90;;;;;;2078043;28;20192;-62
2023/03/27 01:40:19;;;;;;;1.80;1.70;;;3.00;99.90;;;;;;2080950;28;20200;-62
2023/03/27 01:42:15;;;;;;;1.25;1.25;;;3.00;99.90;;;;;;2078313;28;20239;-62
2023/03/27 01:44:03;;;;;;;1.20;1.20;;;3.00;99.90;;;;;;2057417;28;20228;-62
2023/03/27 01:45:25;;;;;;;1.00;0.88;;;3.10;99.90;;;;;;2057012;28;20215;-63
2023/03/27 01:46:55;;;;;;;0.88;0.88;;;3.10;99.90;;;;;;2069265;28;20189;-62
2023/03/27 01:48:14;;;;;;;1.00;0.90;;;3.10;99.90;;;;;;2074275;28;20707;-60
2023/03/27 01:49:30;;;;;;;1.35;1.10;;;3.10;99.90;;;;;;2069181;28;20203;-62
2023/03/27 01:50:46;;;;;;;2.38;2.28;;;3.10;99.90;;;;;;2071276;28;20367;-61
2023/03/27 01:52:01;;;;;;;0.90;0.90;;;3.10;99.90;;;;;;2078454;28;20198;-62
2023/03/27 01:53:14;;;;;;;1.15;1.15;;;3.00;99.90;;;;;;2071203;28;20667;-62
2023/03/27 01:54:34;;;;;;;2.78;2.65;;;3.00;99.90;;;;;;2071002;28;20558;-62
2023/03/27 01:55:47;;;;;;;2.28;2.17;;;2.90;99.90;;;;;;2078668;28;20571;-61
2023/03/27 01:57:19;;;;;;;3.10;2.90;;;2.90;99.90;;;;;;2070053;28;20192;-62
2023/03/27 01:58:32;;;;;;;0.95;0.95;;;2.90;99.90;;;;;;2073962;28;20212;-62
2023/03/27 01:59:43;;;;;;;1.08;0.85;;;2.90;99.90;;;;;;2071155;28;20186;-61
2023/03/27 02:00:54;;;;;;;0.80;0.73;;;2.80;99.90;;;;;;2075451;28;20193;-62
2023/03/27 02:02:12;;;;;;;0.70;0.70;;;2.90;99.90;;;;;;2074921;28;20212;-62
2023/03/27 02:03:26;;;;;;;2.08;1.95;;;2.90;99.90;;;;;;2075025;28;20216;-62
2023/03/27 02:04:58;;;;;;;1.80;1.70;;;2.90;99.90;;;;;;2077860;28;20251;-59
2023/03/27 02:06:13;;;;;;;1.63;1.52;;;2.90;99.90;;;;;;2077307;28;20262;-61
2023/03/27 02:07:29;;;;;;;0.90;0.90;;;2.80;99.90;;;;;;2069508;28;20205;-61
2023/03/27 02:08:44;;;;;;;1.20;1.20;;;2.80;99.90;;;;;;2072433;28;20539;-62
2023/03/27 02:09:55;;;;;;;1.08;0.90;;;2.90;99.90;;;;;;2077427;28;20195;-60
2023/03/27 02:11:03;;;;;;;1.00;0.90;;;2.90;99.90;;;;;;2069564;28;20182;-62
2023/03/27 02:12:24;;;;;;;1.35;1.25;;;2.90;99.90;;;;;;2070510;28;20275;-60
2023/03/27 02:14:00;;;;;;;1.42;1.33;;;2.90;99.90;;;;;;2078027;28;20262;-60
2023/03/27 02:15:19;;;;;;;0.88;0.88;;;2.90;99.90;;;;;;2077899;28;20188;-61
2023/03/27 02:16:32;;;;;;;1.00;0.90;;;2.90;99.90;;;;;;2071801;28;20216;-61
2023/03/27 02:17:46;;;;;;;1.13;1.02;;;2.90;99.90;;;;;;2072408;28;20585;-60
2023/03/27 02:19:00;;;;;;;1.13;1.02;;;2.90;99.90;;;;;;2074630;28;20227;-62
2023/03/27 02:20:10;;;;;;;0.90;0.90;;;3.00;99.90;;;;;;2071526;28;20695;-62
2023/03/27 02:21:16;;;;;;;3.33;3.13;;;3.10;99.90;;;;;;2068865;28;20662;-62
2023/03/27 02:22:22;;;;;;;1.33;1.00;;;3.10;99.90;;;;;;2062225;28;20208;-62
2023/03/27 02:23:29;;;;;;;6.63;6.22;;;3.10;99.90;;;;;;2070659;28;20240;-62
2023/03/27 02:24:37;;;;;;;2.92;2.72;;;3.10;99.90;;;;;;2078369;28;20262;-62
2023/03/27 02:25:44;;;;;;;1.35;1.25;;;3.10;99.90;;;;;;2078390;28;20200;-62
2023/03/27 02:26:58;;;;;;;1.92;1.20;;;3.00;99.90;;;;;;2069806;28;20199;-62
2023/03/27 02:28:29;;;;;;;1.55;1.35;;;3.00;99.90;;;;;;2072120;28;20180;-62
2023/03/27 02:29:41;;;;;;;1.27;1.17;;;3.10;99.90;;;;;;2077446;28;20195;-62
2023/03/27 02:31:17;;;;;;;6.60;6.30;;;3.10;99.90;;;;;;2077415;28;20192;-60
2023/03/27 02:33:13;;;;;;;1.60;1.50;;;3.00;99.90;;;;;;2069913;28;20203;-62
2023/03/27 02:35:01;;;;;;;2.03;1.83;;;3.00;99.90;;;;;;2070699;28;20201;-61
2023/03/27 02:36:44;;;;;;;2.85;2.70;;;3.00;99.90;;;;;;2059549;28;20208;-62
2023/03/27 02:38:08;;;;;;;1.15;1.05;;;2.80;99.90;;;;;;2063792;28;20194;-62
2023/03/27 02:39:20;;;;;;;1.10;0.95;;;2.70;99.90;;;;;;2072996;28;20192;-62
2023/03/27 02:40:53;;;;;;;1.05;1.05;;;2.70;99.90;;;;;;2071529;28;20195;-62
2023/03/27 02:42:29;;;;;;;1.10;1.00;;;2.70;99.90;;;;;;2072734;28;20746;-62
2023/03/27 02:44:22;;;;;;;2.58;0.80;;;2.70;99.90;;;;;;2066226;28;20255;-62
2023/03/27 02:46:05;;;;;;;0.82;0.82;;;2.70;99.90;;;;;;2079284;28;20688;-62
2023/03/27 02:47:24;;;;;;;0.80;0.80;;;2.80;99.90;;;;;;2077870;28;20720;-61
2023/03/27 02:48:39;;;;;;;1.13;1.02;;;2.80;99.90;;;;;;2069244;28;20252;-62
2023/03/27 02:49:54;;;;;;;1.25;1.02;;;2.80;99.90;;;;;;2072340;28;20274;-60
2023/03/27 02:51:42;;;;;;;1.70;1.60;;;2.90;99.90;;;;;;2077284;28;20240;-62
2023/03/27 02:52:53;;;;;;;1.63;1.10;;;2.80;99.90;;;;;;2079562;28;20199;-61
2023/03/27 02:54:08;;;;;;;1.50;1.40;;;2.80;99.90;;;;;;2071845;28;20212;-61
2023/03/27 02:55:20;;;;;;;1.38;1.25;;;2.70;99.90;;;;;;2064429;28;20193;-62
2023/03/27 02:56:30;;;;;;;1.40;1.13;;;2.70;99.90;;;;;;2062998;28;20220;-62
2023/03/27 02:57:38;;;;;;;1.30;1.20;;;2.80;99.90;;;;;;2063241;28;20264;-62
2023/03/27 02:59:05;;;;;;;1.33;1.23;;;2.70;99.90;;;;;;2070386;28;20254;-62
2023/03/27 03:00:23;;;;;;;1.35;1.17;;;2.70;99.90;;;;;;2076766;28;20766;-62
2023/03/27 03:01:31;;;;;;;1.70;1.58;;;2.70;99.90;;;;;;2068326;28;20548;-61
2023/03/27 03:02:37;;;;;;;1.08;0.95;;;2.70;99.90;;;;;;2063618;28;20231;-62
2023/03/27 03:03:59;;;;;;;1.77;1.40;;;2.70;99.90;;;;;;2070416;28;20287;-63
2023/03/27 03:05:16;;;;;;;1.60;1.33;;;2.70;99.90;;;;;;2077240;28;20310;-62
2023/03/27 03:06:28;;;;;;;2.25;1.60;;;2.80;99.90;;;;;;2072938;28;20227;-62
2023/03/27 03:07:36;;;;;;;1.70;1.55;;;2.80;99.90;;;;;;2065844;28;20658;-60
2023/03/27 03:08:45;;;;;;;2.15;1.42;;;2.80;99.90;;;;;;2071143;28;20192;-62
2023/03/27 03:09:55;;;;;;;1.73;1.52;;;2.90;99.90;;;;;;2076879;28;20194;-62
2023/03/27 03:11:07;;;;;;;2.00;1.73;;;2.90;99.90;;;;;;2077262;28;20258;-61
2023/03/27 03:12:09;;;;;;;1.80;1.63;;;2.90;99.90;;;;;;2076479;28;20739;-61
2023/03/27 03:13:16;;;;;;;1.83;1.48;;;2.80;99.90;;;;;;2079412;28;20222;-62
2023/03/27 03:14:37;;;;;;;2.17;1.58;;;2.80;99.90;;;;;;2080939;28;20265;-62
2023/03/27 03:15:46;;;;;;;1.85;1.55;;;2.90;99.90;;;;;;2078395;28;20199;-62
2023/03/27 03:16:52;;;;;;;2.15;1.60;;;2.90;99.90;;;;;;2077599;28;20180;-62
2023/03/27 03:17:58;;;;;;;7.18;6.75;;;2.90;99.90;;;;;;2077336;28;20221;-60
2023/03/27 03:19:04;;;;;;;1.70;1.52;;;2.80;99.90;;;;;;2077405;28;20264;-60
2023/03/27 03:20:11;;;;;;;2.30;1.48;;;2.80;99.90;;;;;;2077440;28;20202;-60
2023/03/27 03:21:17;;;;;;;2.08;1.55;;;2.70;99.90;;;;;;2077297;28;20188;-61
2023/03/27 03:22:22;;;;;;;3.33;3.03;;;2.70;99.90;;;;;;2077974;28;20551;-62
2023/03/27 03:23:28;;;;;;;2.13;1.90;;;2.70;99.90;;;;;;2069047;28;20213;-60
2023/03/27 03:24:40;;;;;;;3.47;1.70;;;2.70;99.90;;;;;;2070016;28;20268;-61
2023/03/27 03:25:49;;;;;;;3.63;3.33;;;2.60;99.90;;;;;;2077169;28;20188;-62
2023/03/27 03:26:54;;;;;;;3.47;2.58;;;2.50;99.90;;;;;;2077389;28;20187;-62
2023/03/27 03:28:00;;;;;;;3.90;3.42;;;2.60;99.90;;;;;;2077083;28;20188;-62
2023/03/27 03:29:04;;;;;;;3.22;2.25;;;2.60;99.90;;;;;;2077313;28;20681;-62
2023/03/27 03:30:10;;;;;;;3.35;2.47;;;2.60;99.90;;;;;;2077130;28;20198;-60
2023/03/27 03:31:17;;;;;;;6.03;3.10;;;2.60;99.90;;;;;;2077162;28;20727;-61
2023/03/27 03:32:22;;;;;;;2.80;2.47;;;2.50;99.90;;;;;;2077114;28;20748;-61
2023/03/27 03:33:28;;;;;;;5.85;5.25;;;2.60;99.90;;;;;;2080290;28;20203;-62
2023/03/27 03:34:34;;;;;;;4.38;3.97;;;2.50;99.90;;;;;;2078599;28;20250;-62
2023/03/27 03:35:41;;;;;;;3.30;2.60;;;2.50;99.90;;;;;;2077727;28;20599;-62
2023/03/27 03:36:48;;;;;;;5.18;3.47;;;2.50;99.90;;;;;;2077745;28;20199;-62
2023/03/27 03:37:53;;;;;;;4.95;4.22;;;2.60;99.90;;;;;;2077905;28;20180;-61
2023/03/27 03:38:59;;;;;;;4.20;3.80;;;2.50;99.90;;;;;;2076945;28;20180;-61
2023/03/27 03:40:10;;;;;;;3.83;2.83;;;2.50;99.90;;;;;;2077231;28;20199;-62
2023/03/27 03:41:16;;;;;;;9.65;6.38;;;2.40;99.90;;;;;;2077116;28;20192;-61
2023/03/27 03:42:22;;;;;;;3.90;3.60;;;2.50;99.90;;;;;;2076901;28;20590;-61
2023/03/27 03:43:30;;;;;;;6.30;2.88;;;2.40;99.90;;;;;;2077133;28;20213;-62
2023/03/27 03:44:36;;;;;;;3.88;2.50;;;2.40;99.90;;;;;;2077713;28;20241;-62
2023/03/27 03:45:41;;;;;;;3.60;3.30;;;2.40;99.90;;;;;;2077683;28;20785;-61
2023/03/27 03:46:47;;;;;;;23.77;22.30;;;2.40;99.90;;;;;;2077215;28;20204;-62
2023/03/27 03:47:53;;;;;;;4.28;3.97;;;2.40;99.90;;;;;;2077231;28;20207;-62
2023/03/27 03:48:59;;;;;;;3.45;3.08;;;2.30;99.90;;;;;;2076981;28;20221;-60
2023/03/27 03:50:05;;;;;;;5.97;5.57;;;2.30;99.90;;;;;;2076687;28;20270;-61
2023/03/27 03:51:10;;;;;;;2.95;2.63;;;2.30;99.90;;;;;;2076681;28;20278;-62
2023/03/27 03:52:15;;;;;;;3.83;2.40;;;2.30;99.90;;;;;;2076948;28;20637;-61
2023/03/27 03:53:21;;;;;;;3.20;2.13;;;2.30;99.90;;;;;;2077646;28;20214;-61
2023/03/27 03:54:27;;;;;;;3.60;2.10;;;2.30;99.90;;;;;;2077797;28;20551;-62
2023/03/27 03:55:32;;;;;;;4.18;2.97;;;2.40;99.90;;;;;;2077040;28;20184;-62
2023/03/27 03:56:40;;;;;;;3.55;2.67;;;2.40;99.90;;;;;;2077071;28;20220;-62
2023/03/27 03:57:46;;;;;;;3.95;2.95;;;2.40;99.90;;;;;;2076918;28;20193;-62
2023/03/27 03:58:52;;;;;;;3.67;2.47;;;2.40;99.90;;;;;;2068101;28;20215;-62
2023/03/27 03:59:57;;;;;;;5.15;4.65;;;2.40;99.90;;;;;;2068935;28;20200;-62
2023/03/27 04:01:03;;;;;;;8.75;8.00;;;2.30;99.90;;;;;;2077048;28;20740;-61
2023/03/27 04:02:04;;;;;;;6.72;6.22;;;2.20;99.90;;;;;;2077310;28;20201;-60
2023/03/27 04:03:09;;;;;;;3.60;2.45;;;2.20;99.90;;;;;;2077412;28;20232;-62
2023/03/27 04:04:15;;;;;;;3.97;3.10;;;2.10;99.90;;;;;;2077551;28;20183;-61
2023/03/27 04:05:22;;;;;;;4.57;2.80;;;2.10;99.90;;;;;;2080057;28;20184;-61
2023/03/27 04:06:29;;;;;;;6.70;6.20;;;2.10;99.90;;;;;;2076835;28;20220;-59
2023/03/27 04:07:35;;;;;;;3.25;2.95;;;2.10;99.90;;;;;;2077277;28;20184;-60
2023/03/27 04:08:41;;;;;;;10.70;10.10;;;2.00;99.90;;;;;;2077795;28;20188;-61
2023/03/27 04:09:47;;;;;;;4.40;3.90;;;1.90;99.90;;;;;;2077450;28;20263;-59
2023/03/27 04:10:53;;;;;;;1.52;1.38;;;1.90;99.90;;;;;;2076928;28;20206;-61
2023/03/27 04:11:58;;;;;;;3.45;1.92;;;1.90;99.90;;;;;;2076859;28;20214;-61
2023/03/27 04:13:05;;;;;;;6.75;6.25;;;1.90;99.90;;;;;;2076929;28;20194;-61
2023/03/27 04:14:09;;;;;;;5.45;3.20;;;1.80;99.90;;;;;;2077415;28;20206;-62
2023/03/27 04:15:15;;;;;;;4.95;2.92;;;1.80;99.90;;;;;;2074670;28;20196;-60
2023/03/27 04:16:21;;;;;;;6.20;4.38;;;1.80;99.90;;;;;;2077048;28;20207;-61
2023/03/27 04:17:27;;;;;;;7.70;6.15;;;1.80;99.90;;;;;;2077628;28;20183;-61
2023/03/27 04:18:33;;;;;;;9.68;6.75;;;1.70;99.90;;;;;;2077547;28;20198;-62
2023/03/27 04:19:40;;;;;;;7.97;4.25;;;1.70;99.90;;;;;;2077030;28;20192;-59
2023/03/27 04:20:49;;;;;;;8.63;7.75;;;1.60;99.90;;;;;;2076735;28;20191;-61
2023/03/27 04:21:56;;;;;;;9.35;8.50;;;1.60;99.90;;;;;;2077368;28;20207;-61
2023/03/27 04:23:02;;;;;;;13.10;11.98;;;1.60;99.90;;;;;;2077364;28;20198;-62
2023/03/27 04:24:07;;;;;;;18.27;16.75;;;1.60;99.90;;;;;;2077543;28;20197;-60
2023/03/27 04:25:09;;;;;;;7.68;5.28;;;1.50;99.90;;;;;;2076204;28;20693;-61
2023/03/27 04:26:15;;;;;;;14.25;12.55;;;1.50;99.90;;;;;;2076298;28;20211;-61
2023/03/27 04:27:21;;;;;;;11.60;8.60;;;1.50;99.90;;;;;;2076538;28;20182;-61
2023/03/27 04:28:33;;;;;;;15.00;13.65;;;1.50;99.90;;;;;;2076345;28;20187;-60
2023/03/27 04:29:42;;;;;;;14.57;11.38;;;1.50;99.90;;;;;;2076962;28;20267;-62
2023/03/27 04:30:49;;;;;;;12.85;6.30;;;1.50;99.90;;;;;;2076833;28;20258;-61
2023/03/27 04:31:56;;;;;;;11.85;7.63;;;1.50;99.90;;;;;;2076784;28;20189;-61
2023/03/27 04:33:02;;;;;;;8.80;4.53;;;1.50;99.90;;;;;;2076287;28;20202;-60
2023/03/27 04:34:07;;;;;;;12.60;5.70;;;1.50;99.90;;;;;;2076198;28;20224;-62
2023/03/27 04:35:12;;;;;;;9.15;6.05;;;1.50;99.90;;;;;;2076755;28;20253;-61
2023/03/27 04:36:18;;;;;;;12.48;9.00;;;1.50;99.90;;;;;;2076766;28;20195;-62
2023/03/27 04:37:24;;;;;;;9.63;5.50;;;1.50;99.90;;;;;;2076861;28;20251;-61
2023/03/27 04:38:30;;;;;;;12.70;6.13;;;1.50;99.90;;;;;;2076847;28;20204;-61
2023/03/27 04:39:41;;;;;;;14.10;7.68;;;1.50;99.90;;;;;;2079742;28;20602;-62
2023/03/27 04:40:47;;;;;;;22.55;11.75;;;1.50;99.90;;;;;;2076655;28;20203;-63
2023/03/27 04:41:53;;;;;;;16.80;7.53;;;1.50;99.90;;;;;;2080538;28;20192;-61
2023/03/27 04:43:00;;;;;;;15.18;5.80;;;1.40;99.90;;;;;;2078648;28;20206;-61
2023/03/27 04:44:04;;;;;;;14.32;6.55;;;1.40;99.90;;;;;;2078273;28;20221;-61
2023/03/27 04:45:22;;;;;;;14.07;9.00;;;1.40;99.90;;;;;;2077201;28;20199;-62
2023/03/27 04:46:27;;;;;;;10.57;5.97;;;1.50;99.90;;;;;;2077388;28;20239;-61
2023/03/27 04:47:36;;;;;;;11.70;6.53;;;1.50;99.90;;;;;;2077217;28;20241;-62
2023/03/27 04:48:42;;;;;;;13.43;6.65;;;1.50;99.90;;;;;;2077029;28;20183;-60
2023/03/27 04:49:49;;;;;;;11.63;9.13;;;1.50;99.90;;;;;;2076406;28;20183;-62
2023/03/27 04:50:55;;;;;;;9.80;7.20;;;1.50;99.90;;;;;;2076641;28;20187;-61
2023/03/27 04:52:01;;;;;;;9.90;5.70;;;1.50;99.90;;;;;;2076385;28;20277;-62
2023/03/27 04:53:05;;;;;;;13.25;5.90;;;1.40;99.90;;;;;;2076318;28;20671;-62
2023/03/27 04:54:09;;;;;;;26.85;24.70;;;1.40;99.90;;;;;;2076589;28;20212;-62
2023/03/27 04:55:15;;;;;;;10.77;6.13;;;1.40;99.90;;;;;;2076454;28;20187;-61
2023/03/27 04:56:21;;;;;;;10.88;5.45;;;1.40;99.90;;;;;;2076614;28;20190;-62
2023/03/27 04:57:30;;;;;;;14.40;9.63;;;1.40;99.90;;;;;;2076637;28;20700;-62
2023/03/27 04:58:36;;;;;;;14.13;7.32;;;1.40;99.90;;;;;;2076873;28;20272;-61
2023/03/27 04:59:42;;;;;;;14.93;6.45;;;1.40;99.90;;;;;;2076451;28;20186;-61
2023/03/27 05:00:49;;;;;;;12.32;7.00;;;1.40;99.90;;;;;;2076576;28;20569;-61
2023/03/27 05:01:56;;;;;;;8.80;5.05;;;1.40;99.90;;;;;;2075819;28;20277;-62
2023/03/27 05:03:02;;;;;;;9.23;6.88;;;1.40;99.90;;;;;;2076408;28;20663;-61
2023/03/27 05:04:04;;;;;;;10.25;5.55;;;1.40;99.90;;;;;;2077226;28;20197;-60
2023/03/27 05:05:10;;;;;;;12.00;8.43;;;1.40;99.90;;;;;;2077271;28;20702;-61
2023/03/27 05:06:15;;;;;;;10.50;7.35;;;1.40;99.90;;;;;;2076879;28;20218;-62
2023/03/27 05:07:21;;;;;;;11.10;8.52;;;1.40;99.90;;;;;;2076627;28;20181;-61
2023/03/27 05:08:27;;;;;;;9.88;5.78;;;1.30;99.90;;;;;;2076497;28;20242;-61
2023/03/27 05:09:33;;;;;;;12.52;6.13;;;1.30;99.90;;;;;;2076681;28;20170;-62
2023/03/27 05:10:39;;;;;;;11.43;5.57;;;1.20;99.90;;;;;;2076457;28;20188;-59
2023/03/27 05:11:48;;;;;;;10.00;4.82;;;1.20;99.90;;;;;;2080777;28;20197;-62
2023/03/27 05:12:54;;;;;;;10.60;5.72;;;1.20;99.90;;;;;;2083866;28;20707;-62
2023/03/27 05:14:00;;;;;;;7.80;4.55;;;1.30;99.90;;;;;;2077637;28;20189;-61
2023/03/27 05:15:05;;;;;;;10.73;5.30;;;1.30;99.90;;;;;;2076983;28;20184;-61
2023/03/27 05:16:10;;;;;;;9.82;5.07;;;1.40;99.90;;;;;;2077362;28;20857;-62
2023/03/27 05:17:16;;;;;;;8.75;4.80;;;1.30;99.90;;;;;;2077356;28;20187;-62
2023/03/27 05:18:21;;;;;;;8.40;4.75;;;1.40;99.90;;;;;;2076616;28;20227;-62
2023/03/27 05:19:27;;;;;;;14.35;5.47;;;1.40;99.90;;;;;;2076716;28;20178;-62
2023/03/27 05:20:34;;;;;;;8.27;4.18;;;1.30;99.90;;;;;;2076501;28;20256;-62
2023/03/27 05:21:40;;;;;;;9.63;4.68;;;1.40;99.90;;;;;;2076370;28;20648;-60
2023/03/27 05:22:47;;;;;;;11.75;5.47;;;1.40;99.90;;;;;;2076337;28;20679;-61
2023/03/27 05:23:52;;;;;;;9.65;4.45;;;1.30;99.90;;;;;;2076988;28;20626;-61
2023/03/27 05:24:58;;;;;;;11.70;8.02;;;1.40;99.90;;;;;;2077112;28;20203;-62
2023/03/27 05:26:04;;;;;;;12.55;8.15;;;1.30;99.90;;;;;;2077174;28;20303;-62
2023/03/27 05:27:09;;;;;;;21.50;19.35;;;1.20;99.90;;;;;;2076413;28;20194;-60
2023/03/27 05:28:15;;;;;;;11.02;5.50;;;1.20;99.90;;;;;;2076780;28;20681;-62
2023/03/27 05:29:21;;;;;;;15.95;6.55;;;1.10;99.90;;;;;;2076719;28;20273;-62
2023/03/27 05:30:27;;;;;;;12.35;6.95;;;1.10;99.90;;;;;;2076648;28;20188;-62
2023/03/27 05:31:37;;;;;;;12.80;6.50;;;1.10;99.90;;;;;;2076283;28;20614;-62
2023/03/27 05:32:47;;;;;;;12.65;9.25;;;1.10;99.90;;;;;;2076645;28;20265;-61
2023/03/27 05:33:53;;;;;;;16.98;7.85;;;1.10;99.90;;;;;;2075992;28;20283;-61
2023/03/27 05:34:59;;;;;;;17.98;13.55;;;1.00;99.90;;;;;;2079738;28;20211;-61
2023/03/27 05:36:05;;;;;;;14.20;6.88;;;1.00;99.90;;;;;;2076502;28;20671;-62
2023/03/27 05:37:10;;;;;;;17.83;12.10;;;1.00;99.90;;;;;;2076340;28;20285;-61
2023/03/27 05:38:16;;;;;;;19.83;17.17;;;1.00;99.90;;;;;;2076681;28;20227;-62
2023/03/27 05:39:24;;;;;;;18.42;8.45;;;1.00;99.90;;;;;;2067599;28;20284;-63
2023/03/27 05:40:30;;;;;;;20.45;12.73;;;1.00;99.90;;;;;;2069603;28;20728;-62
2023/03/27 05:41:35;;;;;;;18.33;8.55;;;1.00;99.90;;;;;;2076836;28;20232;-61
2023/03/27 05:42:45;;;;;;;18.15;8.27;;;1.00;99.90;;;;;;2076966;28;20674;-59
2023/03/27 05:43:51;;;;;;;14.35;10.32;;;1.00;99.90;;;;;;2076229;28;20202;-62
2023/03/27 05:44:57;;;;;;;16.63;7.32;;;1.10;99.90;;;;;;2076436;28;20632;-62
2023/03/27 05:46:03;;;;;;;15.00;7.72;;;1.10;99.90;;;;;;2076291;28;20210;-62
2023/03/27 05:47:04;;;;;;;19.40;8.25;;;1.00;99.90;;;;;;2076999;28;20310;-61
2023/03/27 05:48:09;;;;;;;14.73;6.75;;;1.00;99.90;;;;;;2076795;28;20556;-62
2023/03/27 05:49:15;;;;;;;17.10;7.50;;;1.00;99.90;;;;;;2077048;28;20556;-62
2023/03/27 05:50:28;;;;;;;15.13;7.63;;;1.00;99.90;;;;;;2076469;28;20193;-61
2023/03/27 05:51:34;;;;;;;18.90;9.45;;;1.00;99.90;;;;;;2076138;28;20186;-62
2023/03/27 05:52:40;;;;;;;13.13;8.27;;;1.00;99.90;;;;;;2079398;28;20673;-61
2023/03/27 05:53:46;;;;;;;16.63;7.85;;;1.00;99.90;;;;;;2076254;28;20638;-62
2023/03/27 05:54:51;;;;;;;18.95;7.95;;;1.00;99.90;;;;;;2076806;28;20278;-62
2023/03/27 05:55:57;;;;;;;20.92;7.55;;;1.00;99.90;;;;;;2076943;28;20223;-63
2023/03/27 05:57:03;;;;;;;15.32;9.43;;;1.00;99.90;;;;;;2077128;28;20189;-62
2023/03/27 05:58:05;;;;;;;15.45;9.05;;;1.00;99.90;;;;;;2076633;28;20251;-62
2023/03/27 05:59:09;;;;;;;19.25;7.53;;;1.00;99.90;;;;;;2076178;28;20247;-62
2023/03/27 06:00:22;;;;;;;19.20;9.38;;;1.00;99.90;;;;;;2076311;28;20643;-61
2023/03/27 06:01:29;;;;;;;19.67;8.45;;;1.00;99.90;;;;;;2078954;28;20652;-62
2023/03/27 06:02:35;;;;;;;19.17;9.50;;;1.00;99.90;;;;;;2076192;28;20193;-62
2023/03/27 06:03:40;;;;;;;17.25;8.68;;;0.90;99.90;;;;;;2076988;28;20215;-62
2023/03/27 06:04:46;;;;;;;17.90;7.35;;;0.90;99.90;;;;;;2076804;28;20281;-62
2023/03/27 06:05:52;;;;;;;15.93;6.78;;;1.00;99.90;;;;;;2076804;28;20204;-62
2023/03/27 06:07:01;;;;;;;18.40;7.97;;;1.00;99.90;;;;;;2076260;28;20183;-63
2023/03/27 06:08:10;;;;;;;13.35;9.25;;;1.00;99.90;;;;;;2076146;28;20185;-60
2023/03/27 06:09:16;;;;;;;16.02;14.30;;;0.90;99.90;;;;;;2076438;28;20184;-62
2023/03/27 06:10:22;;;;;;;13.98;6.82;;;0.90;99.90;;;;;;2076246;28;20662;-62
2023/03/27 06:11:27;;;;;;;11.77;6.22;;;0.80;99.90;;;;;;2076150;28;20260;-62
2023/03/27 06:12:35;;;;;;;15.73;7.53;;;0.80;99.90;;;;;;2076232;28;20261;-62
2023/03/27 06:13:41;;;;;;;12.30;6.90;;;0.80;99.90;;;;;;2076784;28;20286;-62